Time;durP1;ratioP1;P1;durP2;ratioP2;P2;SDS_P1;SDS_P2;PMS_P1;PMS_P2;Temp;Humidity;BMP_temperature;BMP_pressure;BME280_temperature;BME280_humidity;BME280_pressure;Samples;Min_cycle;Max_cycle;Signal;HPM_P1;HPM_P2
2022/09/14 00:01:20;;;;;;;2.20;1.90;;;16.00;99.90;;;;;;5049624;28;20345;-68
2022/09/14 00:03:51;;;;;;;1.98;1.88;;;15.90;99.90;;;;;;5042722;28;20202;-68
2022/09/14 00:06:18;;;;;;;2.28;2.08;;;15.90;99.90;;;;;;5050447;28;20216;-68
2022/09/14 00:08:44;;;;;;;2.30;2.10;;;15.80;99.90;;;;;;5051124;28;20487;-68
2022/09/14 00:11:13;;;;;;;2.35;2.15;;;15.80;99.90;;;;;;5046547;28;21032;-68
2022/09/14 00:13:44;;;;;;;2.13;1.90;;;15.80;99.90;;;;;;5059650;28;20236;-66
2022/09/14 00:16:14;;;;;;;2.30;2.10;;;15.70;99.90;;;;;;5043495;28;20241;-65
2022/09/14 00:18:41;;;;;;;3.63;2.03;;;15.70;99.90;;;;;;5051913;28;20240;-68
2022/09/14 00:21:10;;;;;;;3.00;2.80;;;15.70;99.90;;;;;;5049545;28;20217;-68
2022/09/14 00:23:38;;;;;;;2.55;2.30;;;15.60;99.90;;;;;;5050587;28;20233;-69
2022/09/14 00:26:06;;;;;;;2.58;2.20;;;15.60;99.90;;;;;;5049288;28;20216;-68
2022/09/14 00:28:37;;;;;;;2.77;2.33;;;15.50;99.90;;;;;;5049897;28;20224;-69
2022/09/14 00:31:06;;;;;;;2.90;2.43;;;15.50;99.90;;;;;;5051393;28;20222;-69
2022/09/14 00:33:33;;;;;;;2.83;2.58;;;15.40;99.90;;;;;;5049634;28;20202;-68
2022/09/14 00:36:05;;;;;;;3.13;2.85;;;15.40;99.90;;;;;;5055987;28;20290;-67
2022/09/14 00:38:32;;;;;;;3.20;2.73;;;15.40;99.90;;;;;;5056255;28;20229;-68
2022/09/14 00:41:00;;;;;;;3.27;2.93;;;15.30;99.90;;;;;;5049615;28;20210;-67
2022/09/14 00:43:27;;;;;;;3.30;3.00;;;15.30;99.90;;;;;;5043810;28;20210;-68
2022/09/14 00:45:54;;;;;;;3.37;3.13;;;15.20;99.90;;;;;;5050585;28;20209;-67
2022/09/14 00:48:24;;;;;;;3.25;2.95;;;15.10;99.90;;;;;;5046380;28;20214;-67
2022/09/14 00:50:52;;;;;;;3.33;3.03;;;15.10;99.90;;;;;;5052695;28;20267;-68
2022/09/14 00:53:19;;;;;;;2.93;2.73;;;15.10;99.90;;;;;;5052443;28;20202;-67
2022/09/14 00:55:46;;;;;;;3.33;3.07;;;15.10;99.90;;;;;;5051574;28;20202;-67
2022/09/14 00:58:13;;;;;;;3.40;3.10;;;15.00;99.90;;;;;;5061134;28;20253;-68
2022/09/14 01:00:39;;;;;;;3.77;3.37;;;15.00;99.90;;;;;;5050309;28;20217;-68
2022/09/14 01:03:06;;;;;;;3.90;3.50;;;15.00;99.90;;;;;;5048586;28;20213;-68
2022/09/14 01:05:46;;;;;;;3.50;3.20;;;15.00;99.90;;;;;;5046320;28;20205;-68
2022/09/14 01:08:31;;;;;;;3.67;3.37;;;14.90;99.90;;;;;;5049492;28;20206;-68
2022/09/14 01:11:13;;;;;;;5.10;3.50;;;14.90;99.90;;;;;;5038716;28;20221;-68
2022/09/14 01:13:51;;;;;;;4.73;3.30;;;14.90;99.90;;;;;;5055081;28;20315;-68
2022/09/14 01:16:24;;;;;;;5.23;3.67;;;14.90;99.90;;;;;;5056651;28;20632;-68
2022/09/14 01:18:56;;;;;;;5.03;4.10;;;14.90;99.90;;;;;;5057649;28;20305;-68
2022/09/14 01:21:28;;;;;;;4.23;3.83;;;14.90;99.90;;;;;;5048869;28;20301;-67
2022/09/14 01:24:01;;;;;;;3.97;3.67;;;14.90;99.90;;;;;;5050229;28;20661;-68
2022/09/14 01:26:47;;;;;;;4.20;3.90;;;14.90;99.90;;;;;;5048942;28;20202;-67
2022/09/14 01:29:19;;;;;;;4.30;3.90;;;14.90;99.90;;;;;;5049658;28;20668;-68
2022/09/14 01:31:52;;;;;;;4.50;4.10;;;14.90;99.90;;;;;;5049831;28;20210;-67
2022/09/14 01:34:28;;;;;;;4.67;4.27;;;14.90;99.90;;;;;;5046692;28;20658;-67
2022/09/14 01:36:59;;;;;;;5.67;5.00;;;14.90;99.90;;;;;;5047838;28;20257;-67
2022/09/14 01:39:29;;;;;;;6.07;5.37;;;14.90;99.90;;;;;;5044202;28;20213;-67
2022/09/14 01:41:58;;;;;;;6.63;5.93;;;14.90;99.90;;;;;;5039264;28;20218;-68
2022/09/14 01:44:32;;;;;;;5.90;5.40;;;14.90;99.90;;;;;;5037382;28;20206;-67
2022/09/14 01:47:06;;;;;;;6.03;5.53;;;14.90;99.90;;;;;;5043089;28;20214;-67
2022/09/14 01:49:37;;;;;;;7.10;5.47;;;14.90;99.90;;;;;;5047785;28;20205;-68
2022/09/14 01:52:08;;;;;;;6.17;5.57;;;14.90;99.90;;;;;;5062292;28;20228;-67
2022/09/14 01:54:42;;;;;;;7.40;6.70;;;14.90;99.90;;;;;;5048832;28;20689;-66
2022/09/14 01:57:19;;;;;;;8.30;6.70;;;14.90;99.90;;;;;;5061996;28;20215;-67
2022/09/14 01:59:50;;;;;;;8.00;7.20;;;14.90;99.90;;;;;;5046113;28;20220;-66
2022/09/14 02:02:24;;;;;;;7.90;7.10;;;14.90;99.90;;;;;;5049200;28;20252;-68
2022/09/14 02:04:54;;;;;;;8.70;7.33;;;14.90;99.90;;;;;;5048389;28;20279;-67
2022/09/14 02:07:21;;;;;;;10.43;7.97;;;15.00;99.90;;;;;;5048550;28;20300;-67
2022/09/14 02:09:50;;;;;;;9.70;8.73;;;15.00;99.90;;;;;;5034361;28;20198;-67
2022/09/14 02:12:17;;;;;;;9.80;8.80;;;15.00;99.90;;;;;;5049432;28;20269;-67
2022/09/14 02:14:46;;;;;;;12.83;10.23;;;15.00;99.90;;;;;;5049337;28;20678;-67
2022/09/14 02:17:14;;;;;;;11.93;9.13;;;15.00;99.90;;;;;;5040611;28;20209;-65
2022/09/14 02:19:44;;;;;;;14.67;11.13;;;15.00;99.90;;;;;;5047437;28;20226;-67
2022/09/14 02:22:11;;;;;;;12.43;11.13;;;15.00;99.90;;;;;;5047096;28;20677;-68
2022/09/14 02:24:38;;;;;;;12.40;10.63;;;15.00;99.90;;;;;;5048302;28;20573;-67
2022/09/14 02:27:06;;;;;;;12.43;11.20;;;15.00;99.90;;;;;;5047814;28;20666;-67
2022/09/14 02:29:33;;;;;;;11.97;10.77;;;15.10;99.90;;;;;;5048213;28;20221;-66
2022/09/14 02:32:13;;;;;;;12.70;11.20;;;15.10;99.90;;;;;;5048954;28;20586;-67
2022/09/14 02:34:51;;;;;;;13.07;11.37;;;15.00;99.90;;;;;;5047163;28;20210;-68
2022/09/14 02:37:20;;;;;;;13.63;12.17;;;15.10;99.90;;;;;;5047153;28;20669;-68
2022/09/14 02:39:55;;;;;;;14.83;12.10;;;15.10;99.90;;;;;;5048186;28;20229;-68
2022/09/14 02:42:33;;;;;;;15.23;13.30;;;15.10;99.90;;;;;;5052325;28;20208;-68
2022/09/14 02:45:07;;;;;;;15.30;13.27;;;15.10;99.90;;;;;;5051216;28;20225;-68
2022/09/14 02:47:45;;;;;;;15.43;13.03;;;15.10;99.90;;;;;;5049713;28;20197;-67
2022/09/14 02:50:22;;;;;;;17.23;15.43;;;15.10;99.90;;;;;;5052676;28;20206;-67
2022/09/14 02:52:53;;;;;;;16.92;14.20;;;15.20;99.90;;;;;;5052254;28;20276;-68
2022/09/14 02:55:22;;;;;;;17.05;15.20;;;15.20;99.90;;;;;;5052360;28;20198;-68
2022/09/14 02:58:00;;;;;;;19.23;16.90;;;15.20;99.90;;;;;;5058514;28;20209;-67
2022/09/14 03:00:27;;;;;;;19.43;17.37;;;15.20;99.90;;;;;;5053483;28;20320;-67
2022/09/14 03:02:55;;;;;;;19.63;17.08;;;15.20;99.90;;;;;;5053190;28;20213;-67
2022/09/14 03:05:22;;;;;;;20.20;17.63;;;15.20;99.90;;;;;;5052376;28;20214;-68
2022/09/14 03:07:49;;;;;;;19.75;17.02;;;15.20;99.90;;;;;;5042257;28;20206;-68
2022/09/14 03:10:16;;;;;;;20.77;17.35;;;15.20;99.90;;;;;;5062598;28;20201;-68
2022/09/14 03:12:43;;;;;;;22.08;19.30;;;15.20;99.90;;;;;;5057827;28;20213;-67
2022/09/14 03:15:10;;;;;;;20.37;18.17;;;15.20;99.90;;;;;;5040444;28;20646;-68
2022/09/14 03:17:37;;;;;;;21.92;18.10;;;15.20;99.90;;;;;;5051539;28;20222;-68
2022/09/14 03:20:06;;;;;;;22.57;18.37;;;15.20;99.90;;;;;;5051887;28;20229;-66
2022/09/14 03:22:33;;;;;;;22.17;17.93;;;15.20;99.90;;;;;;5051405;28;20228;-69
2022/09/14 03:24:59;;;;;;;23.77;18.98;;;15.20;99.90;;;;;;5047552;28;20797;-68
2022/09/14 03:27:26;;;;;;;20.52;18.25;;;15.20;99.90;;;;;;5050058;28;20452;-68
2022/09/14 03:29:53;;;;;;;23.53;18.83;;;15.20;99.90;;;;;;5051701;28;20241;-68
2022/09/14 03:32:20;;;;;;;22.58;18.92;;;15.30;99.90;;;;;;5051332;28;20202;-67
2022/09/14 03:34:46;;;;;;;24.90;19.97;;;15.20;99.90;;;;;;5049797;28;20202;-68
2022/09/14 03:37:14;;;;;;;27.00;20.40;;;15.20;99.90;;;;;;5050026;28;22024;-68
2022/09/14 03:39:41;;;;;;;25.77;19.97;;;15.20;99.90;;;;;;5051907;28;20245;-68
2022/09/14 03:42:08;;;;;;;22.13;19.13;;;15.20;99.90;;;;;;5050465;28;20336;-68
2022/09/14 03:44:34;;;;;;;23.40;19.67;;;15.20;99.90;;;;;;5051002;28;20225;-68
2022/09/14 03:47:01;;;;;;;27.05;19.75;;;15.10;99.90;;;;;;5050744;28;20210;-68
2022/09/14 03:49:28;;;;;;;23.90;19.57;;;15.10;99.90;;;;;;5050530;28;20198;-68
2022/09/14 03:51:55;;;;;;;23.80;18.77;;;15.10;99.90;;;;;;5050607;28;20217;-68
2022/09/14 03:54:23;;;;;;;25.00;19.17;;;15.00;99.90;;;;;;5044979;28;20221;-68
2022/09/14 03:56:51;;;;;;;22.47;19.03;;;15.10;99.90;;;;;;5052221;28;20213;-67
2022/09/14 03:59:18;;;;;;;25.57;18.70;;;15.00;99.90;;;;;;5052884;28;20674;-67
2022/09/14 04:01:45;;;;;;;24.13;19.37;;;15.00;99.90;;;;;;5051657;28;20210;-68
2022/09/14 04:04:12;;;;;;;25.87;19.23;;;15.00;99.90;;;;;;5050399;28;20221;-68
2022/09/14 04:06:38;;;;;;;24.13;18.57;;;15.00;99.90;;;;;;5050618;28;20209;-69
2022/09/14 04:09:05;;;;;;;23.50;19.70;;;14.90;99.90;;;;;;5050496;28;20217;-68
2022/09/14 04:11:33;;;;;;;22.13;18.57;;;14.90;99.90;;;;;;5051275;28;20217;-68
2022/09/14 04:14:02;;;;;;;22.37;18.87;;;14.90;99.90;;;;;;5053350;28;20218;-67
2022/09/14 04:16:29;;;;;;;26.83;18.53;;;14.90;99.90;;;;;;5049712;28;20202;-68
2022/09/14 04:18:56;;;;;;;24.33;18.77;;;14.90;99.90;;;;;;5050451;28;20577;-68
2022/09/14 04:21:25;;;;;;;23.70;19.13;;;14.90;99.90;;;;;;5050479;28;20233;-68
2022/09/14 04:23:53;;;;;;;25.10;20.43;;;14.90;99.90;;;;;;5056254;28;20233;-67
2022/09/14 04:26:21;;;;;;;23.93;19.53;;;14.80;99.90;;;;;;5044235;28;20211;-67
2022/09/14 04:28:50;;;;;;;25.43;19.10;;;14.80;99.90;;;;;;5046316;28;20201;-66
2022/09/14 04:31:16;;;;;;;24.77;19.83;;;14.80;99.90;;;;;;5051136;28;20608;-68
2022/09/14 04:33:44;;;;;;;25.03;18.80;;;14.80;99.90;;;;;;5048966;28;20201;-68
2022/09/14 04:36:13;;;;;;;21.73;17.80;;;14.80;99.90;;;;;;5051040;28;20324;-68
2022/09/14 04:38:41;;;;;;;20.50;17.50;;;14.80;99.90;;;;;;5049528;28;20490;-68
2022/09/14 04:41:10;;;;;;;19.63;16.77;;;14.90;99.90;;;;;;5050657;28;20222;-67
2022/09/14 04:43:37;;;;;;;20.13;16.60;;;14.90;99.90;;;;;;5049929;28;20220;-67
2022/09/14 04:46:08;;;;;;;21.00;17.47;;;14.90;99.90;;;;;;5049036;28;20579;-68
2022/09/14 04:48:35;;;;;;;20.90;17.43;;;15.00;99.90;;;;;;5042702;28;20872;-68
2022/09/14 04:51:03;;;;;;;22.73;17.33;;;15.00;99.90;;;;;;5050085;28;20742;-67
2022/09/14 04:53:30;;;;;;;19.23;16.93;;;15.10;99.90;;;;;;5050086;28;20658;-68
2022/09/14 04:56:00;;;;;;;19.70;16.70;;;15.10;99.90;;;;;;5052412;28;20294;-68
2022/09/14 04:58:28;;;;;;;17.03;14.50;;;15.10;99.90;;;;;;5067869;28;20742;-68
2022/09/14 05:00:55;;;;;;;23.17;17.23;;;15.10;99.90;;;;;;5053616;28;20221;-68
2022/09/14 05:03:23;;;;;;;17.93;15.90;;;15.20;99.90;;;;;;5049303;28;20710;-69
2022/09/14 05:05:50;;;;;;;18.20;15.90;;;15.20;99.90;;;;;;5046771;28;20209;-68
2022/09/14 05:08:17;;;;;;;17.33;15.53;;;15.20;99.90;;;;;;5045640;28;20206;-68
2022/09/14 05:10:43;;;;;;;21.00;15.50;;;15.30;99.90;;;;;;5062765;28;20236;-69
2022/09/14 05:13:10;;;;;;;20.67;15.47;;;15.30;99.90;;;;;;5058440;28;20228;-68
2022/09/14 05:15:37;;;;;;;17.97;14.30;;;15.40;99.90;;;;;;5048053;28;20217;-68
2022/09/14 05:18:04;;;;;;;17.00;14.97;;;15.40;99.90;;;;;;5049519;28;20216;-67
2022/09/14 05:20:34;;;;;;;17.93;15.13;;;15.50;99.90;;;;;;5048221;28;20585;-69
2022/09/14 05:23:00;;;;;;;18.27;15.27;;;15.50;99.90;;;;;;5060006;28;20229;-69
2022/09/14 05:25:27;;;;;;;18.43;15.67;;;15.50;99.90;;;;;;5042841;28;20209;-70
2022/09/14 05:27:54;;;;;;;18.03;14.83;;;15.70;99.90;;;;;;5048696;28;20217;-74
2022/09/14 05:30:21;;;;;;;19.65;14.48;;;15.70;99.90;;;;;;5046404;28;20194;-70
2022/09/14 05:32:48;;;;;;;17.50;14.57;;;15.80;99.90;;;;;;5052885;28;20209;-69
2022/09/14 05:35:15;;;;;;;17.58;15.65;;;15.80;99.90;;;;;;5036901;28;20250;-69
2022/09/14 05:37:43;;;;;;;19.65;15.27;;;15.80;99.90;;;;;;5053914;28;20197;-69
2022/09/14 05:40:11;;;;;;;16.85;14.93;;;15.80;99.90;;;;;;5065883;28;20252;-69
2022/09/14 05:42:37;;;;;;;17.43;15.23;;;15.80;99.90;;;;;;5049654;28;20214;-69
2022/09/14 05:45:05;;;;;;;16.65;14.90;;;15.90;99.90;;;;;;5044266;28;20218;-68
2022/09/14 05:47:32;;;;;;;21.10;16.50;;;16.00;99.90;;;;;;5046769;28;20256;-72
2022/09/14 05:49:58;;;;;;;21.50;17.42;;;16.10;99.90;;;;;;5055191;28;20210;-70
2022/09/14 05:52:25;;;;;;;18.35;16.35;;;16.10;99.90;;;;;;5051186;28;20214;-70
2022/09/14 05:54:53;;;;;;;17.63;14.70;;;16.20;99.90;;;;;;5052923;28;20206;-70
2022/09/14 05:57:20;;;;;;;16.33;14.50;;;16.20;99.90;;;;;;5043159;28;20213;-71
2022/09/14 05:59:47;;;;;;;20.80;15.35;;;16.20;99.90;;;;;;5047168;28;20217;-71
2022/09/14 06:02:13;;;;;;;17.83;15.82;;;16.30;99.90;;;;;;5044907;28;20213;-71
2022/09/14 06:04:40;;;;;;;21.60;16.83;;;16.20;99.90;;;;;;5046082;28;20206;-70
2022/09/14 06:07:07;;;;;;;19.40;16.10;;;16.20;99.90;;;;;;5045859;28;20214;-69
2022/09/14 06:09:33;;;;;;;22.75;17.38;;;16.10;99.90;;;;;;5037204;28;20679;-69
2022/09/14 06:12:02;;;;;;;24.63;19.73;;;16.10;99.90;;;;;;5047033;28;20210;-68
2022/09/14 06:14:28;;;;;;;24.38;18.95;;;16.10;99.90;;;;;;5055549;28;20213;-69
2022/09/14 06:16:55;;;;;;;23.80;18.93;;;16.00;99.90;;;;;;5048490;28;20229;-70
2022/09/14 06:19:22;;;;;;;24.67;18.92;;;16.00;99.90;;;;;;5050814;28;20213;-71
2022/09/14 06:21:49;;;;;;;25.70;19.93;;;16.00;99.90;;;;;;5055218;28;20233;-69
2022/09/14 06:24:15;;;;;;;23.85;19.40;;;15.90;99.90;;;;;;5053508;28;20287;-69
2022/09/14 06:26:42;;;;;;;27.60;21.30;;;15.90;99.90;;;;;;5050144;28;20210;-68
2022/09/14 06:29:10;;;;;;;26.73;20.83;;;15.90;99.90;;;;;;5052204;28;20210;-69
2022/09/14 06:31:37;;;;;;;27.30;20.88;;;15.80;99.90;;;;;;5053329;28;20669;-70
2022/09/14 06:34:04;;;;;;;26.70;20.87;;;15.70;99.90;;;;;;5052977;28;20217;-70
2022/09/14 06:36:31;;;;;;;25.90;19.33;;;15.80;99.90;;;;;;5052601;28;20238;-70
2022/09/14 06:38:59;;;;;;;30.02;20.83;;;15.80;99.90;;;;;;5054697;28;20217;-70
2022/09/14 06:41:29;;;;;;;24.75;19.50;;;15.80;99.90;;;;;;5062328;28;20434;-70
2022/09/14 06:43:57;;;;;;;24.67;18.90;;;15.80;99.90;;;;;;5049871;28;20213;-71
2022/09/14 06:46:28;;;;;;;23.70;19.60;;;15.80;99.90;;;;;;5038312;28;20563;-70
2022/09/14 06:48:56;;;;;;;24.58;20.00;;;15.90;99.90;;;;;;5051687;28;20213;-70
2022/09/14 06:51:25;;;;;;;22.70;18.17;;;15.80;99.90;;;;;;5046042;28;20602;-68
2022/09/14 06:53:53;;;;;;;24.00;19.45;;;15.90;99.90;;;;;;5052204;28;20638;-71
2022/09/14 06:56:20;;;;;;;26.83;18.50;;;15.80;99.90;;;;;;5053478;28;20238;-72
2022/09/14 06:58:48;;;;;;;24.42;18.60;;;15.80;99.90;;;;;;5064148;28;20212;-71
2022/09/14 07:01:18;;;;;;;20.43;17.90;;;15.80;99.90;;;;;;5054175;28;20218;-66
2022/09/14 07:03:47;;;;;;;23.20;17.75;;;15.80;99.90;;;;;;5057399;28;20275;-73
2022/09/14 07:06:18;;;;;;;20.15;17.23;;;15.80;99.90;;;;;;5051828;28;20638;-72
2022/09/14 07:08:44;;;;;;;21.13;16.80;;;15.80;99.90;;;;;;5056509;28;20201;-70
2022/09/14 07:11:12;;;;;;;20.20;17.53;;;15.80;99.90;;;;;;5047078;28;20211;-74
2022/09/14 07:13:40;;;;;;;19.17;16.43;;;15.80;99.90;;;;;;5057823;28;20208;-70
2022/09/14 07:16:07;;;;;;;19.63;16.10;;;15.90;99.90;;;;;;5049806;28;20221;-71
2022/09/14 07:18:35;;;;;;;19.67;16.87;;;15.90;99.90;;;;;;5052531;28;20201;-71
2022/09/14 07:21:04;;;;;;;19.88;17.00;;;16.00;99.90;;;;;;5054034;28;20586;-70
2022/09/14 07:23:30;;;;;;;20.52;17.20;;;16.10;99.90;;;;;;5055639;28;20268;-66
2022/09/14 07:26:04;;;;;;;19.83;17.10;;;16.30;99.90;;;;;;5048190;28;20218;-73
2022/09/14 07:28:32;;;;;;;22.13;19.75;;;16.50;99.90;;;;;;5048331;28;20509;-74
2022/09/14 07:30:59;;;;;;;22.88;17.67;;;16.80;99.90;;;;;;5062301;28;20224;-72
2022/09/14 07:33:25;;;;;;;21.98;16.55;;;17.00;99.90;;;;;;5058640;28;20233;-73
2022/09/14 07:35:52;;;;;;;18.45;15.23;;;17.40;99.90;;;;;;5053477;28;20237;-72
2022/09/14 07:38:21;;;;;;;20.25;15.55;;;17.60;99.90;;;;;;5057756;28;20594;-72
2022/09/14 07:40:47;;;;;;;17.13;14.95;;;17.80;99.90;;;;;;5063563;28;20214;-74
2022/09/14 07:43:14;;;;;;;15.15;13.55;;;17.80;99.90;;;;;;5046204;28;20209;-71
2022/09/14 07:45:41;;;;;;;16.58;14.70;;;17.90;99.90;;;;;;5048515;28;20455;-73
2022/09/14 07:48:08;;;;;;;17.38;14.10;;;17.80;99.90;;;;;;5050131;28;20963;-73
2022/09/14 07:50:35;;;;;;;14.40;12.70;;;17.80;99.90;;;;;;5062951;28;20205;-74
2022/09/14 07:53:02;;;;;;;13.90;12.35;;;17.90;99.90;;;;;;5058452;28;20209;-73
2022/09/14 07:55:30;;;;;;;14.35;12.00;;;18.20;99.90;;;;;;5060466;28;20677;-73
2022/09/14 07:57:57;;;;;;;15.27;12.40;;;18.40;99.90;;;;;;5049529;28;20466;-73
2022/09/14 08:00:24;;;;;;;12.35;11.05;;;18.40;99.90;;;;;;5046820;28;20646;-74
2022/09/14 08:02:56;;;;;;;13.73;11.15;;;18.40;99.90;;;;;;5053881;28;20198;-72
2022/09/14 08:05:24;;;;;;;13.00;9.80;;;18.50;99.90;;;;;;5062089;28;20617;-72
2022/09/14 08:07:56;;;;;;;10.48;9.00;;;18.60;99.90;;;;;;5057531;28;20241;-73
2022/09/14 08:10:24;;;;;;;13.88;9.48;;;18.80;99.90;;;;;;5057101;28;20201;-73
2022/09/14 08:12:54;;;;;;;10.05;8.43;;;18.90;99.90;;;;;;5057661;28;20194;-73
2022/09/14 08:15:21;;;;;;;10.85;8.52;;;19.00;99.90;;;;;;5045671;28;20210;-73
2022/09/14 08:17:48;;;;;;;10.68;8.65;;;19.10;99.90;;;;;;5047663;28;20218;-73
2022/09/14 08:20:16;;;;;;;11.38;9.23;;;19.20;99.90;;;;;;5047774;28;20213;-73
2022/09/14 08:22:44;;;;;;;10.68;7.28;;;19.30;99.90;;;;;;5049982;28;20360;-73
2022/09/14 08:25:11;;;;;;;9.48;6.82;;;19.40;99.90;;;;;;5055449;28;20217;-74
2022/09/14 08:27:40;;;;;;;12.60;6.88;;;19.50;99.90;;;;;;5069253;28;20216;-75
2022/09/14 08:30:11;;;;;;;9.30;6.15;;;19.60;99.90;;;;;;5070306;28;20574;-74
2022/09/14 08:32:38;;;;;;;8.52;6.28;;;19.80;99.90;;;;;;5060044;28;20218;-73
2022/09/14 08:35:06;;;;;;;7.22;5.93;;;19.80;99.90;;;;;;5051322;28;20545;-75
2022/09/14 08:37:33;;;;;;;6.05;5.32;;;19.80;99.90;;;;;;5059418;28;20656;-74
2022/09/14 08:39:59;;;;;;;8.40;5.82;;;19.80;99.90;;;;;;5059428;28;20221;-74
2022/09/14 08:42:26;;;;;;;10.27;6.30;;;19.90;99.90;;;;;;5049970;28;20238;-73
2022/09/14 08:44:56;;;;;;;8.25;6.18;;;20.00;99.90;;;;;;5054905;28;20217;-75
2022/09/14 08:47:27;;;;;;;8.18;5.63;;;20.20;99.90;;;;;;5050802;28;20596;-73
2022/09/14 08:49:59;;;;;;;9.73;5.40;;;20.50;99.90;;;;;;5048831;28;20708;-73
2022/09/14 08:52:28;;;;;;;7.55;5.72;;;20.80;99.90;;;;;;5049335;28;20753;-74
2022/09/14 08:54:57;;;;;;;7.40;5.18;;;20.80;99.90;;;;;;5046545;28;20206;-71
2022/09/14 08:57:41;;;;;;;5.78;5.18;;;20.80;99.90;;;;;;5053075;28;20297;-72
2022/09/14 09:00:12;;;;;;;10.07;5.72;;;20.90;99.90;;;;;;5051863;28;20673;-72
2022/09/14 09:03:14;;;;;;;9.10;5.35;;;20.90;99.90;;;;;;5052271;28;20711;-71
2022/09/14 09:05:48;;;;;;;7.13;4.90;;;21.10;99.90;;;;;;5048883;28;20208;-72
2022/09/14 09:08:22;;;;;;;10.57;5.90;;;21.50;99.90;;;;;;5048345;28;20312;-72
2022/09/14 09:10:52;;;;;;;6.68;5.25;;;22.00;99.90;;;;;;5047972;28;20233;-74
2022/09/14 09:13:22;;;;;;;7.95;4.88;;;23.20;99.90;;;;;;5041428;28;20908;-73
2022/09/14 09:15:51;;;;;;;6.00;4.80;;;25.50;99.90;;;;;;5050375;28;20728;-72
2022/09/14 09:18:23;;;;;;;7.32;5.15;;;26.20;99.90;;;;;;5050325;28;20213;-75
2022/09/14 09:20:56;;;;;;;5.80;4.72;;;26.50;99.80;;;;;;5051121;28;20209;-75
2022/09/14 09:23:24;;;;;;;7.03;4.32;;;26.50;95.50;;;;;;5050624;28;20229;-74
2022/09/14 09:25:56;;;;;;;7.07;4.40;;;25.70;95.20;;;;;;5046258;28;20210;-75
2022/09/14 09:28:24;;;;;;;5.40;3.97;;;24.90;96.20;;;;;;5050771;28;20248;-74
2022/09/14 09:30:52;;;;;;;5.35;4.68;;;24.40;97.50;;;;;;5051183;28;20209;-75
2022/09/14 09:33:22;;;;;;;10.48;5.10;;;24.30;99.20;;;;;;5050403;28;20222;-75
2022/09/14 09:35:49;;;;;;;7.88;4.57;;;25.10;97.40;;;;;;5051053;28;20281;-75
2022/09/14 09:38:23;;;;;;;8.95;4.28;;;26.20;98.70;;;;;;5050863;28;20214;-75
2022/09/14 09:40:54;;;;;;;6.15;3.85;;;28.10;92.30;;;;;;5062795;28;20225;-74
2022/09/14 09:43:21;;;;;;;4.90;3.72;;;27.90;88.00;;;;;;5050716;28;20225;-75
2022/09/14 09:45:55;;;;;;;5.28;3.88;;;27.00;89.00;;;;;;5051350;28;20645;-74
2022/09/14 09:48:27;;;;;;;6.97;3.50;;;26.30;90.70;;;;;;5040978;28;20207;-75
2022/09/14 09:51:04;;;;;;;7.68;4.40;;;27.40;91.40;;;;;;5050539;28;20237;-75
2022/09/14 09:53:34;;;;;;;5.03;3.80;;;29.40;84.10;;;;;;5053814;28;20740;-75
2022/09/14 09:56:02;;;;;;;5.20;3.60;;;31.70;75.50;;;;;;5054168;28;20289;-75
2022/09/14 09:58:34;;;;;;;5.43;3.47;;;33.20;65.10;;;;;;5053296;28;20666;-75
2022/09/14 10:01:04;;;;;;;6.63;3.83;;;33.00;58.70;;;;;;5049230;28;20206;-75
2022/09/14 10:03:34;;;;;;;7.05;3.70;;;31.60;59.70;;;;;;5056825;28;20567;-75
2022/09/14 10:06:08;;;;;;;5.05;3.83;;;30.80;61.70;;;;;;5057157;28;20212;-74
2022/09/14 10:08:43;;;;;;;6.38;4.30;;;29.90;63.00;;;;;;5057319;28;20244;-74
2022/09/14 10:11:33;;;;;;;5.88;4.13;;;30.10;65.40;;;;;;5051325;28;20193;-74
2022/09/14 10:14:00;;;;;;;6.40;4.07;;;31.40;62.50;;;;;;5051532;28;20677;-69
2022/09/14 10:16:34;;;;;;;6.75;3.67;;;32.40;58.80;;;;;;5049177;28;20226;-73
2022/09/14 10:19:02;;;;;;;5.22;3.80;;;32.10;56.70;;;;;;5046624;28;20202;-69
2022/09/14 10:21:30;;;;;;;6.90;4.10;;;31.60;58.50;;;;;;5051718;28;20601;-70
2022/09/14 10:24:16;;;;;;;4.30;3.72;;;31.00;59.80;;;;;;5053197;28;20209;-72
2022/09/14 10:26:43;;;;;;;4.03;3.63;;;30.00;60.20;;;;;;5047728;28;20213;-71
2022/09/14 10:29:36;;;;;;;8.38;4.15;;;29.70;65.50;;;;;;5063388;28;20221;-71
2022/09/14 10:32:16;;;;;;;6.15;4.00;;;29.30;62.80;;;;;;5036612;28;20219;-71
2022/09/14 10:34:43;;;;;;;5.07;3.28;;;29.40;65.30;;;;;;5052073;28;20259;-73
2022/09/14 10:37:21;;;;;;;4.72;3.67;;;29.60;63.80;;;;;;5053386;28;20787;-66
2022/09/14 10:39:59;;;;;;;5.43;3.38;;;29.70;63.20;;;;;;5057990;28;20263;-73
2022/09/14 10:42:34;;;;;;;4.00;3.33;;;29.70;63.40;;;;;;5052206;28;20760;-74
2022/09/14 10:45:14;;;;;;;4.70;2.70;;;29.50;63.30;;;;;;5054321;28;20205;-75
2022/09/14 10:48:01;;;;;;;4.47;3.28;;;29.50;64.80;;;;;;5061450;28;20202;-75
2022/09/14 10:50:40;;;;;;;3.53;2.85;;;29.30;64.00;;;;;;5051246;28;20282;-74
2022/09/14 10:53:17;;;;;;;3.80;2.42;;;29.10;63.10;;;;;;5050544;28;20563;-73
2022/09/14 10:55:53;;;;;;;3.50;2.10;;;28.50;62.00;;;;;;5052901;28;20210;-72
2022/09/14 10:58:53;;;;;;;4.07;2.38;;;28.00;62.40;;;;;;5051207;28;20197;-73
2022/09/14 11:01:32;;;;;;;3.42;2.05;;;28.00;63.70;;;;;;5047362;28;20509;-73
2022/09/14 11:04:13;;;;;;;5.55;2.20;;;28.10;62.80;;;;;;5049114;28;20209;-76
2022/09/14 11:06:52;;;;;;;4.07;2.15;;;28.00;62.90;;;;;;5050208;28;20206;-73
2022/09/14 11:09:23;;;;;;;3.33;2.60;;;28.30;63.70;;;;;;5062109;28;20212;-73
2022/09/14 11:12:03;;;;;;;4.18;2.50;;;28.50;64.40;;;;;;5053187;28;20551;-73
2022/09/14 11:14:48;;;;;;;3.60;2.60;;;28.80;64.30;;;;;;5055396;28;20256;-73
2022/09/14 11:17:38;;;;;;;4.22;2.38;;;29.00;63.50;;;;;;5047423;28;20601;-74
2022/09/14 11:20:15;;;;;;;2.70;1.92;;;28.90;62.80;;;;;;5045229;28;20300;-74
2022/09/14 11:22:50;;;;;;;3.85;2.30;;;28.80;62.70;;;;;;5047225;28;20659;-74
2022/09/14 11:25:21;;;;;;;3.45;1.90;;;29.00;62.40;;;;;;5050672;28;20208;-74
2022/09/14 11:27:52;;;;;;;3.47;2.28;;;29.00;61.70;;;;;;5042902;28;20217;-73
2022/09/14 11:30:20;;;;;;;4.13;2.17;;;28.40;61.20;;;;;;5047566;28;20229;-73
2022/09/14 11:32:52;;;;;;;3.83;2.05;;;27.90;63.10;;;;;;5047175;28;20194;-69
2022/09/14 11:35:24;;;;;;;3.80;1.55;;;27.80;64.60;;;;;;5043455;28;20237;-72
2022/09/14 11:37:56;;;;;;;3.22;2.00;;;27.90;63.70;;;;;;5057526;28;20700;-71
2022/09/14 11:40:27;;;;;;;4.50;1.83;;;27.70;63.10;;;;;;5054487;28;20634;-68
2022/09/14 11:43:02;;;;;;;2.22;1.73;;;27.50;63.10;;;;;;5051909;28;20606;-68
2022/09/14 11:45:33;;;;;;;3.67;1.85;;;27.10;64.00;;;;;;5051989;28;20198;-69
2022/09/14 11:48:11;;;;;;;2.70;1.70;;;26.70;64.00;;;;;;5050113;28;20214;-69
2022/09/14 11:50:40;;;;;;;3.78;1.80;;;26.70;64.60;;;;;;5058471;28;20236;-66
2022/09/14 11:53:11;;;;;;;2.35;1.88;;;26.90;64.30;;;;;;5051388;28;20206;-72
2022/09/14 11:55:42;;;;;;;3.50;1.58;;;27.10;63.70;;;;;;5055194;28;20212;-70
2022/09/14 11:58:18;;;;;;;2.33;1.45;;;27.20;62.10;;;;;;5043498;28;20198;-72
2022/09/14 12:01:04;;;;;;;4.28;1.77;;;27.50;61.70;;;;;;5051117;28;20205;-71
2022/09/14 12:04:03;;;;;;;2.50;1.80;;;27.70;61.20;;;;;;5037642;28;20247;-73
2022/09/14 12:06:48;;;;;;;3.25;1.77;;;28.10;60.90;;;;;;5048893;28;20206;-75
2022/09/14 12:09:43;;;;;;;2.10;1.33;;;28.30;60.40;;;;;;5044745;28;20202;-76
2022/09/14 12:12:35;;;;;;;2.53;1.63;;;28.70;59.50;;;;;;5057386;28;20593;-75
2022/09/14 12:15:12;;;;;;;3.38;1.50;;;29.10;58.30;;;;;;5038561;28;20210;-71
2022/09/14 12:17:40;;;;;;;3.30;1.85;;;29.20;57.10;;;;;;5044898;28;20193;-70
2022/09/14 12:20:32;;;;;;;2.70;1.63;;;29.30;57.00;;;;;;5051945;28;20258;-72
2022/09/14 12:23:30;;;;;;;3.00;1.70;;;29.20;56.60;;;;;;5065637;28;20245;-75
2022/09/14 12:26:34;;;;;;;3.47;1.67;;;29.20;56.90;;;;;;5051455;28;20271;-72
2022/09/14 12:29:19;;;;;;;3.20;1.55;;;29.10;56.50;;;;;;5065440;28;20201;-70
2022/09/14 12:32:26;;;;;;;3.90;1.63;;;28.90;57.00;;;;;;5049716;28;20218;-72
2022/09/14 12:35:26;;;;;;;5.10;1.60;;;28.60;57.50;;;;;;5048584;28;20216;-72
2022/09/14 12:37:52;;;;;;;3.30;1.50;;;28.50;57.10;;;;;;5052286;28;20210;-71
2022/09/14 12:40:36;;;;;;;3.58;1.70;;;28.20;57.60;;;;;;5051235;28;20206;-72
2022/09/14 12:43:48;;;;;;;2.38;1.60;;;27.80;58.30;;;;;;5046358;28;20762;-71
2022/09/14 12:46:40;;;;;;;3.92;2.35;;;27.60;58.60;;;;;;5045084;28;20208;-71
2022/09/14 12:49:24;;;;;;;3.28;1.85;;;27.60;58.70;;;;;;5060166;28;20556;-71
2022/09/14 12:51:51;;;;;;;2.83;1.30;;;27.70;58.80;;;;;;5042302;28;20690;-72
2022/09/14 12:54:26;;;;;;;5.10;1.52;;;27.70;58.80;;;;;;5063043;28;20249;-72
2022/09/14 12:57:03;;;;;;;2.05;1.45;;;27.90;58.80;;;;;;5059053;28;20196;-72
2022/09/14 12:59:40;;;;;;;2.05;1.50;;;27.90;58.80;;;;;;5066420;28;20192;-72